createdAt,value
2023-04-11T00:00:40.770Z,3.00
2023-04-11T00:03:08.986Z,2.73
2023-04-11T00:05:36.424Z,2.73
2023-04-11T00:08:03.680Z,2.70
2023-04-11T00:10:31.014Z,2.70
2023-04-11T00:12:58.173Z,2.90
2023-04-11T00:15:26.949Z,2.83
2023-04-11T00:17:55.159Z,2.90
2023-04-11T00:20:22.627Z,2.60
2023-04-11T00:22:51.073Z,2.90
2023-04-11T00:25:18.960Z,3.00
2023-04-11T00:27:46.392Z,2.97
2023-04-11T00:30:13.861Z,3.20
2023-04-11T00:32:41.299Z,3.00
2023-04-11T00:35:08.941Z,3.07
2023-04-11T00:37:36.590Z,3.17
2023-04-11T00:40:06.026Z,3.00
2023-04-11T00:42:33.823Z,2.80
2023-04-11T00:45:01.264Z,2.70
2023-04-11T00:47:28.651Z,2.60
2023-04-11T00:49:58.496Z,2.87
2023-04-11T00:52:25.932Z,2.53
2023-04-11T00:54:53.227Z,2.87
2023-04-11T00:57:21.349Z,2.53
2023-04-11T00:59:48.829Z,2.73
2023-04-11T01:02:16.068Z,2.83
2023-04-11T01:04:44.705Z,2.70
2023-04-11T01:07:12.976Z,2.93
2023-04-11T01:09:41.208Z,2.63
2023-04-11T01:12:09.380Z,2.70
2023-04-11T01:14:36.581Z,2.77
2023-04-11T01:17:04.058Z,2.50
2023-04-11T01:19:31.519Z,2.90
2023-04-11T01:21:59.653Z,2.83
2023-04-11T01:24:27.046Z,2.73
2023-04-11T01:26:54.888Z,2.73
2023-04-11T01:29:22.015Z,3.00
2023-04-11T01:31:51.033Z,3.10
2023-04-11T01:34:19.199Z,2.80
2023-04-11T01:36:46.460Z,2.60
2023-04-11T01:39:14.076Z,2.60
2023-04-11T01:41:42.622Z,2.70
2023-04-11T01:44:09.810Z,2.53
2023-04-11T01:46:37.204Z,2.70
2023-04-11T01:49:04.781Z,2.70
2023-04-11T01:51:32.121Z,2.70
2023-04-11T01:53:59.346Z,2.37
2023-04-11T01:56:26.530Z,2.90
2023-04-11T01:58:53.855Z,2.90
2023-04-11T02:01:21.842Z,2.70
2023-04-11T02:03:49.263Z,2.40
2023-04-11T02:06:17.084Z,2.43
2023-04-11T02:08:44.688Z,2.80
2023-04-11T02:11:12.007Z,2.20
2023-04-11T02:13:39.329Z,2.43
2023-04-11T02:16:12.149Z,2.60
2023-04-11T02:18:41.229Z,2.70
2023-04-11T02:21:11.406Z,2.63
2023-04-11T02:23:38.560Z,2.20
2023-04-11T02:26:06.013Z,2.73
2023-04-11T02:28:33.236Z,2.70
2023-04-11T02:31:00.504Z,3.20
2023-04-11T02:33:27.679Z,2.67
2023-04-11T02:35:55.121Z,3.10
2023-04-11T02:38:22.271Z,3.00
2023-04-11T02:40:49.508Z,3.23
2023-04-11T02:43:16.865Z,4.03
2023-04-11T02:45:44.256Z,4.30
2023-04-11T02:48:11.340Z,4.17
2023-04-11T02:50:41.080Z,3.70
2023-04-11T02:53:08.626Z,4.10
2023-04-11T02:55:35.875Z,3.83
2023-04-11T02:58:03.101Z,3.57
2023-04-11T03:00:30.289Z,3.90
2023-04-11T03:02:57.550Z,3.40
2023-04-11T03:05:25.121Z,3.53
2023-04-11T03:07:52.434Z,3.47
2023-04-11T03:10:21.923Z,3.23
2023-04-11T03:12:49.124Z,3.50
2023-04-11T03:15:17.794Z,3.70
2023-04-11T03:17:45.044Z,4.60
2023-04-11T03:20:13.810Z,3.97
2023-04-11T03:22:41.133Z,4.23
2023-04-11T03:25:11.482Z,3.90
2023-04-11T03:27:38.622Z,4.37
2023-04-11T03:30:06.509Z,3.60
2023-04-11T03:32:37.063Z,3.77
2023-04-11T03:35:04.660Z,4.10
2023-04-11T03:37:32.407Z,3.60
2023-04-11T03:39:59.530Z,4.07
2023-04-11T03:42:29.983Z,4.10
2023-04-11T03:44:57.248Z,4.10
2023-04-11T03:47:24.440Z,3.60
2023-04-11T03:49:52.129Z,4.00
2023-04-11T03:52:19.439Z,3.23
2023-04-11T03:54:47.828Z,3.50
2023-04-11T03:57:15.660Z,3.20
2023-04-11T03:59:43.052Z,3.50
2023-04-11T04:02:10.472Z,3.30
2023-04-11T04:04:39.028Z,3.00
2023-04-11T04:07:06.966Z,3.40
2023-04-11T04:09:34.311Z,3.77
2023-04-11T04:12:01.778Z,3.33
2023-04-11T04:14:29.487Z,3.17
2023-04-11T04:16:59.960Z,3.30
2023-04-11T04:19:27.302Z,3.43
2023-04-11T04:21:58.225Z,2.73
2023-04-11T04:24:29.650Z,3.30
2023-04-11T04:27:01.232Z,3.30
2023-04-11T04:29:35.043Z,3.37
2023-04-11T04:32:03.357Z,3.10
2023-04-11T04:34:30.734Z,3.50
2023-04-11T04:36:59.836Z,3.30
2023-04-11T04:39:30.241Z,2.57
2023-04-11T04:42:00.403Z,2.80
2023-04-11T04:44:28.403Z,3.00
2023-04-11T04:46:57.270Z,3.23
2023-04-11T04:49:24.414Z,3.10
2023-04-11T04:51:51.569Z,3.60
2023-04-11T04:54:19.821Z,3.63
2023-04-11T04:56:48.412Z,3.33
2023-04-11T04:59:16.509Z,3.40
2023-04-11T05:01:44.475Z,3.47
2023-04-11T05:04:12.021Z,3.90
2023-04-11T05:06:39.495Z,3.93
2023-04-11T05:09:06.767Z,3.60
2023-04-11T05:11:34.312Z,3.40
2023-04-11T05:14:01.520Z,3.50
2023-04-11T05:16:28.722Z,3.43
2023-04-11T05:18:56.124Z,3.40
2023-04-11T05:21:23.338Z,2.90
2023-04-11T05:23:50.763Z,2.97
2023-04-11T05:26:18.046Z,2.53
2023-04-11T05:28:45.409Z,2.30
2023-04-11T05:31:12.680Z,2.43
2023-04-11T05:33:40.600Z,2.70
2023-04-11T05:36:08.560Z,2.40
2023-04-11T05:38:35.765Z,2.73
2023-04-11T05:41:02.921Z,2.70
2023-04-11T05:43:30.073Z,2.70
2023-04-11T05:45:57.700Z,2.73
2023-04-11T05:48:24.875Z,2.43
2023-04-11T05:50:52.804Z,2.67
2023-04-11T05:53:20.074Z,2.43
2023-04-11T05:55:47.416Z,2.20
2023-04-11T05:58:14.606Z,2.13
2023-04-11T06:00:41.844Z,1.90
2023-04-11T06:03:09.738Z,2.15
2023-04-11T06:05:37.078Z,2.10
2023-04-11T06:08:06.842Z,2.20
2023-04-11T06:10:35.444Z,2.25
2023-04-11T06:13:05.550Z,1.92
2023-04-11T06:15:33.833Z,2.13
2023-04-11T06:18:03.836Z,2.20
2023-04-11T06:20:32.685Z,2.00
2023-04-11T06:23:01.554Z,2.08
2023-04-11T06:25:28.792Z,2.10
2023-04-11T06:27:56.153Z,2.00
2023-04-11T06:30:24.249Z,2.20
2023-04-11T06:32:52.719Z,2.00
2023-04-11T06:35:24.899Z,2.35
2023-04-11T06:37:52.589Z,2.00
2023-04-11T06:40:23.147Z,2.10
2023-04-11T06:42:50.397Z,2.40
2023-04-11T06:45:17.775Z,2.22
2023-04-11T06:47:45.014Z,2.13
2023-04-11T06:50:12.449Z,1.90
2023-04-11T06:52:39.742Z,2.08
2023-04-11T06:55:07.757Z,2.28
2023-04-11T06:57:35.423Z,2.10
2023-04-11T07:00:03.490Z,2.15
2023-04-11T07:02:32.432Z,2.13
2023-04-11T07:04:59.961Z,2.30
2023-04-11T07:07:27.813Z,2.30
2023-04-11T07:09:55.499Z,2.15
2023-04-11T07:12:22.679Z,2.20
2023-04-11T07:14:49.970Z,2.08
2023-04-11T07:17:17.284Z,2.40
2023-04-11T07:19:44.921Z,1.80
2023-04-11T07:22:12.290Z,2.30
2023-04-11T07:24:39.529Z,2.20
2023-04-11T07:27:06.952Z,2.42
2023-04-11T07:29:34.263Z,2.00
2023-04-11T07:32:01.605Z,2.25
2023-04-11T07:34:28.831Z,2.00
2023-04-11T07:37:01.102Z,1.83
2023-04-11T07:39:28.623Z,1.80
2023-04-11T07:41:56.971Z,1.95
2023-04-11T07:44:24.208Z,1.95
2023-04-11T07:46:51.511Z,2.20
2023-04-11T07:49:18.746Z,1.73
2023-04-11T07:51:45.902Z,1.92
2023-04-11T07:54:13.592Z,1.67
2023-04-11T07:56:40.810Z,1.65
2023-04-11T07:59:08.021Z,1.65
2023-04-11T08:01:35.230Z,1.80
2023-04-11T08:04:02.931Z,1.80
2023-04-11T08:06:31.608Z,1.70
2023-04-11T08:08:58.923Z,1.80
2023-04-11T08:11:26.342Z,1.80
2023-04-11T08:13:53.572Z,1.88
2023-04-11T08:16:23.728Z,1.60
2023-04-11T08:18:51.050Z,1.60
2023-04-11T08:21:18.368Z,1.50
2023-04-11T08:23:46.540Z,1.60
2023-04-11T08:26:13.838Z,1.75
2023-04-11T08:28:42.818Z,1.70
2023-04-11T08:31:13.333Z,1.48
2023-04-11T08:33:41.544Z,1.50
2023-04-11T08:36:10.548Z,1.60
2023-04-11T08:38:46.103Z,1.70
2023-04-11T08:41:14.560Z,2.00
2023-04-11T08:43:41.842Z,1.67
2023-04-11T08:46:09.144Z,1.70
2023-04-11T08:48:36.613Z,1.80
2023-04-11T08:51:04.020Z,1.50
2023-04-11T08:53:32.113Z,1.83
2023-04-11T08:56:00.067Z,1.80
2023-04-11T08:58:27.243Z,2.03
2023-04-11T09:00:54.477Z,1.65
2023-04-11T09:03:21.620Z,1.88
2023-04-11T09:05:48.934Z,1.70
2023-04-11T09:08:17.216Z,1.95
2023-04-11T09:10:45.737Z,1.80
2023-04-11T09:13:24.494Z,2.00
2023-04-11T09:16:04.867Z,1.90
2023-04-11T09:18:36.186Z,2.13
2023-04-11T09:21:05.905Z,1.70
2023-04-11T09:23:33.595Z,1.70
2023-04-11T09:26:01.068Z,1.70
2023-04-11T09:28:28.942Z,1.80
2023-04-11T09:30:58.105Z,1.80
2023-04-11T09:33:29.174Z,1.67
2023-04-11T09:35:57.244Z,1.67
2023-04-11T09:38:34.077Z,1.75
2023-04-11T09:41:03.214Z,1.58
2023-04-11T09:43:53.159Z,2.00
2023-04-11T09:46:21.243Z,1.90
2023-04-11T09:48:52.852Z,1.80
2023-04-11T09:51:35.218Z,1.65
2023-04-11T09:54:04.888Z,1.70
2023-04-11T09:56:34.774Z,1.88
2023-04-11T09:59:03.067Z,1.77
2023-04-11T10:01:30.331Z,1.90
2023-04-11T10:03:58.459Z,1.73
2023-04-11T10:06:38.896Z,1.83
2023-04-11T10:09:11.469Z,2.10
2023-04-11T10:11:45.676Z,2.10
2023-04-11T10:14:37.990Z,1.92
2023-04-11T10:17:19.763Z,2.00
2023-04-11T10:19:48.219Z,1.75
2023-04-11T10:22:49.312Z,2.20
2023-04-11T10:25:19.466Z,2.10
2023-04-11T10:27:51.101Z,2.53
2023-04-11T10:30:39.205Z,1.83
2023-04-11T10:33:17.694Z,1.60
2023-04-11T10:36:05.661Z,2.00
2023-04-11T10:38:46.238Z,1.90
2023-04-11T10:41:25.178Z,2.05
2023-04-11T10:44:12.275Z,1.50
2023-04-11T10:46:50.706Z,1.65
2023-04-11T10:49:38.058Z,1.65
2023-04-11T10:52:22.764Z,1.92
2023-04-11T10:54:52.762Z,1.55
2023-04-11T10:57:21.092Z,1.98
2023-04-11T10:59:51.773Z,2.13
2023-04-11T11:02:22.177Z,1.92
2023-04-11T11:04:50.266Z,1.92
2023-04-11T11:07:18.116Z,2.20
2023-04-11T11:14:57.603Z,1.67
2023-04-11T11:17:24.940Z,1.55
2023-04-11T11:19:52.280Z,2.13
2023-04-11T11:22:26.380Z,1.88
2023-04-11T11:25:08.540Z,1.70
2023-04-11T11:27:37.087Z,1.95
2023-04-11T11:30:11.603Z,1.67
2023-04-11T11:32:38.871Z,1.63
2023-04-11T11:35:15.211Z,1.50
2023-04-11T11:37:42.503Z,1.70
2023-04-11T11:40:14.271Z,1.83
2023-04-11T11:42:41.714Z,1.63
2023-04-11T11:45:20.113Z,1.80
2023-04-11T11:47:48.905Z,1.73
2023-04-11T11:50:34.765Z,1.67
2023-04-11T11:53:16.100Z,2.17
2023-04-11T11:55:43.911Z,1.80
2023-04-11T11:58:11.494Z,1.77
2023-04-11T12:00:40.965Z,1.80
2023-04-11T12:03:12.392Z,1.80
2023-04-11T12:05:43.506Z,1.73
2023-04-11T12:08:11.268Z,1.85
2023-04-11T12:10:42.466Z,1.92
2023-04-11T12:13:18.084Z,1.90
2023-04-11T12:15:56.440Z,1.90
2023-04-11T12:18:25.583Z,2.10
2023-04-11T12:20:56.329Z,1.92
2023-04-11T12:23:27.024Z,1.90
2023-04-11T12:25:54.491Z,1.88
2023-04-11T12:28:22.192Z,1.83
2023-04-11T12:30:49.614Z,2.30
2023-04-11T12:33:17.173Z,2.13
2023-04-11T12:35:44.562Z,1.80
2023-04-11T12:38:14.956Z,1.85
2023-04-11T12:40:46.440Z,2.05
2023-04-11T12:43:13.891Z,1.88
2023-04-11T12:45:41.420Z,1.73
2023-04-11T12:48:09.119Z,1.80
2023-04-11T12:50:36.551Z,1.67
2023-04-11T12:53:04.091Z,1.52
2023-04-11T12:55:32.323Z,1.83
2023-04-11T12:58:00.203Z,1.67
2023-04-11T13:00:27.652Z,1.73
2023-04-11T13:02:58.956Z,1.83
2023-04-11T13:05:27.358Z,1.90
2023-04-11T13:07:54.904Z,1.92
2023-04-11T13:10:22.551Z,1.80
2023-04-11T13:12:53.596Z,1.80
2023-04-11T13:15:21.510Z,1.80
2023-04-11T13:17:49.972Z,1.65
2023-04-11T13:20:17.731Z,1.70
2023-04-11T13:22:45.391Z,1.90
2023-04-11T13:25:13.124Z,1.80
2023-04-11T13:27:42.140Z,1.83
2023-04-11T13:30:10.845Z,1.98
2023-04-11T13:32:38.834Z,2.00
2023-04-11T13:35:07.335Z,2.20
2023-04-11T13:37:34.717Z,2.05
2023-04-11T13:40:02.158Z,2.20
2023-04-11T13:42:29.779Z,2.40
2023-04-11T13:44:57.197Z,2.30
2023-04-11T13:47:24.686Z,2.00
2023-04-11T13:49:52.229Z,2.15
2023-04-11T13:52:19.743Z,2.40
2023-04-11T13:54:47.174Z,1.92
2023-04-11T13:57:14.663Z,2.53
2023-04-11T13:59:42.117Z,2.45
2023-04-11T14:02:09.971Z,2.50
2023-04-11T14:04:37.658Z,2.10
2023-04-11T14:07:05.279Z,2.05
2023-04-11T14:09:32.722Z,2.17
2023-04-11T14:12:00.213Z,2.22
2023-04-11T14:14:27.621Z,2.05
2023-04-11T14:16:55.119Z,2.08
2023-04-11T14:19:25.250Z,2.33
2023-04-11T14:21:53.009Z,2.47
2023-04-11T14:24:22.505Z,2.33
2023-04-11T14:26:50.533Z,2.40
2023-04-11T14:29:19.852Z,2.45
2023-04-11T14:31:51.683Z,2.47
2023-04-11T14:34:19.174Z,2.85
2023-04-11T14:36:47.215Z,2.45
2023-04-11T14:39:20.426Z,2.55
2023-04-11T14:41:49.239Z,2.50
2023-04-11T14:44:17.209Z,2.50
2023-04-11T14:46:45.133Z,2.60
2023-04-11T14:49:13.088Z,2.50
2023-04-11T14:51:40.654Z,2.42
2023-04-11T14:54:08.801Z,2.30
2023-04-11T14:56:36.705Z,2.60
2023-04-11T14:59:04.261Z,2.63
2023-04-11T15:01:32.042Z,2.38
2023-04-11T15:04:00.123Z,2.75
2023-04-11T15:06:28.404Z,2.60
2023-04-11T15:08:56.340Z,2.70
2023-04-11T15:11:23.848Z,2.83
2023-04-11T15:13:53.310Z,2.80
2023-04-11T15:16:24.223Z,2.80
2023-04-11T15:18:51.901Z,3.20
2023-04-11T15:21:19.341Z,3.20
2023-04-11T15:23:47.576Z,3.00
2023-04-11T15:26:15.125Z,2.57
2023-04-11T15:28:43.749Z,3.00
2023-04-11T15:31:13.149Z,2.80
2023-04-11T15:33:42.261Z,3.20
2023-04-11T15:36:10.549Z,3.13
2023-04-11T15:38:38.293Z,3.10
2023-04-11T15:41:05.972Z,3.00
2023-04-11T15:43:33.671Z,3.27
2023-04-11T15:46:05.360Z,3.30
2023-04-11T15:48:33.380Z,2.93
2023-04-11T15:51:08.296Z,3.20
2023-04-11T15:53:36.067Z,2.97
2023-04-11T15:56:10.049Z,3.60
2023-04-11T15:58:37.532Z,3.73
2023-04-11T16:01:05.290Z,3.63
2023-04-11T16:03:33.259Z,3.60
2023-04-11T16:06:01.494Z,3.83
2023-04-11T16:08:29.669Z,3.67
2023-04-11T16:10:57.072Z,3.80
2023-04-11T16:13:24.597Z,3.80
2023-04-11T16:15:52.572Z,3.80
2023-04-11T16:18:20.172Z,3.80
2023-04-11T16:20:47.654Z,4.53
2023-04-11T16:23:16.017Z,4.20
2023-04-11T16:25:44.328Z,4.00
2023-04-11T16:28:14.304Z,4.40
2023-04-11T16:30:42.759Z,3.83
2023-04-11T16:33:10.458Z,4.00
2023-04-11T16:35:40.585Z,3.93
2023-04-11T16:38:08.287Z,4.20
2023-04-11T16:40:38.206Z,4.20
2023-04-11T16:43:06.491Z,4.27
2023-04-11T16:45:34.091Z,4.13
2023-04-11T16:48:02.697Z,4.20
2023-04-11T16:50:30.181Z,4.23
2023-04-11T16:52:57.516Z,4.70
2023-04-11T16:55:24.971Z,4.60
2023-04-11T16:57:53.716Z,4.30
2023-04-11T17:00:21.306Z,4.67
2023-04-11T17:02:49.061Z,3.80
2023-04-11T17:05:19.279Z,4.30
2023-04-11T17:07:46.903Z,4.57
2023-04-11T17:10:15.069Z,4.60
2023-04-11T17:12:42.482Z,4.50
2023-04-11T17:15:11.370Z,4.70
2023-04-11T17:17:38.822Z,4.63
2023-04-11T17:20:10.572Z,4.50
2023-04-11T17:22:43.338Z,4.60
2023-04-11T17:25:11.095Z,5.00
2023-04-11T17:27:38.866Z,4.97
2023-04-11T17:30:09.678Z,5.60
2023-04-11T17:32:38.237Z,5.00
2023-04-11T17:35:06.991Z,5.60
2023-04-11T17:37:36.141Z,5.80
2023-04-11T17:40:10.201Z,5.27
2023-04-11T17:42:37.632Z,4.77
2023-04-11T17:45:17.784Z,5.47
2023-04-11T17:47:49.362Z,5.47
2023-04-11T17:50:20.253Z,5.60
2023-04-11T17:52:48.643Z,5.30
2023-04-11T17:55:17.857Z,5.47
2023-04-11T17:57:49.393Z,5.20
2023-04-11T18:00:20.262Z,5.67
2023-04-11T18:02:49.186Z,5.33
2023-04-11T18:05:24.417Z,4.70
2023-04-11T18:07:55.047Z,4.87
2023-04-11T18:10:23.317Z,4.97
2023-04-11T18:12:52.386Z,4.53
2023-04-11T18:15:20.995Z,4.90
2023-04-11T18:17:48.688Z,5.37
2023-04-11T18:20:18.257Z,5.80
2023-04-11T18:22:52.043Z,5.40
2023-04-11T18:25:20.404Z,4.70
2023-04-11T18:27:48.254Z,5.77
2023-04-11T18:30:19.555Z,4.50
2023-04-11T18:32:51.961Z,4.30
2023-04-11T18:35:19.908Z,4.63
2023-04-11T18:37:47.573Z,4.40
2023-04-11T18:40:16.169Z,5.23
2023-04-11T18:42:49.629Z,4.77
2023-04-11T18:45:20.714Z,5.10
2023-04-11T18:47:48.501Z,4.53
2023-04-11T18:50:17.730Z,5.10
2023-04-11T18:52:46.601Z,5.10
2023-04-11T18:55:17.365Z,5.20
2023-04-11T18:57:47.649Z,4.87
2023-04-11T19:00:19.035Z,5.43
2023-04-11T19:02:48.681Z,5.27
2023-04-11T19:05:18.548Z,5.17
2023-04-11T19:07:46.912Z,4.50
2023-04-11T19:10:14.533Z,4.53
2023-04-11T19:12:41.929Z,5.30
2023-04-11T19:15:09.952Z,5.40
2023-04-11T19:17:39.255Z,5.43
2023-04-11T19:20:07.734Z,4.77
2023-04-11T19:22:36.531Z,5.97
2023-04-11T19:25:04.209Z,5.87
2023-04-11T19:27:31.612Z,5.27
2023-04-11T19:29:59.053Z,5.23
2023-04-11T19:32:26.844Z,4.97
2023-04-11T19:34:54.977Z,5.07
2023-04-11T19:37:23.775Z,5.60
2023-04-11T19:39:54.105Z,5.80
2023-04-11T19:42:21.935Z,4.90
2023-04-11T19:44:49.386Z,6.00
2023-04-11T19:47:16.980Z,5.63
2023-04-11T19:49:47.430Z,6.13
2023-04-11T19:52:14.881Z,5.43
2023-04-11T19:54:42.354Z,4.90
2023-04-11T19:57:09.734Z,4.30
2023-04-11T19:59:37.133Z,5.10
2023-04-11T20:02:05.143Z,4.90
2023-04-11T20:04:32.843Z,4.40
2023-04-11T20:07:01.149Z,3.93
2023-04-11T20:09:29.087Z,4.20
2023-04-11T20:11:57.104Z,3.77
2023-04-11T20:14:24.693Z,3.93
2023-04-11T20:16:52.168Z,3.50
2023-04-11T20:19:21.455Z,3.70
2023-04-11T20:21:49.191Z,3.70
2023-04-11T20:24:17.704Z,3.80
2023-04-11T20:26:45.335Z,4.00
2023-04-11T20:29:13.516Z,3.40
2023-04-11T20:31:41.165Z,3.47
2023-04-11T20:34:08.558Z,3.90
2023-04-11T20:36:37.628Z,3.80
2023-04-11T20:39:05.535Z,3.70
2023-04-11T20:41:33.037Z,3.70
2023-04-11T20:44:00.801Z,3.87
2023-04-11T20:46:29.999Z,3.90
2023-04-11T20:48:57.519Z,3.73
2023-04-11T20:51:25.267Z,3.70
2023-04-11T20:53:52.724Z,4.13
2023-04-11T20:56:25.009Z,3.70
2023-04-11T20:58:52.924Z,4.10
2023-04-11T21:01:20.609Z,3.87
2023-04-11T21:03:48.190Z,3.83
2023-04-11T21:06:15.934Z,3.47
2023-04-11T21:08:43.587Z,3.40
2023-04-11T21:11:11.100Z,3.87
2023-04-11T21:13:38.488Z,3.50
2023-04-11T21:16:06.405Z,3.37
2023-04-11T21:18:33.783Z,3.47
2023-04-11T21:21:01.746Z,3.40
2023-04-11T21:23:29.122Z,3.10
2023-04-11T21:25:56.542Z,3.20
2023-04-11T21:28:24.132Z,3.07
2023-04-11T21:30:51.512Z,3.40
2023-04-11T21:33:21.088Z,3.17
2023-04-11T21:35:50.505Z,3.10
2023-04-11T21:38:17.691Z,3.07
2023-04-11T21:40:44.884Z,2.97
2023-04-11T21:43:12.249Z,2.90
2023-04-11T21:45:39.637Z,2.70
2023-04-11T21:48:06.742Z,3.20
2023-04-11T21:50:34.066Z,3.00
2023-04-11T21:53:01.307Z,3.27
2023-04-11T21:55:28.683Z,3.20
2023-04-11T21:57:55.917Z,3.10
2023-04-11T22:00:23.239Z,3.00
2023-04-11T22:02:50.628Z,3.10
2023-04-11T22:05:18.562Z,3.00
2023-04-11T22:07:48.568Z,3.23
2023-04-11T22:10:22.488Z,3.20
2023-04-11T22:12:50.429Z,3.27
2023-04-11T22:15:18.542Z,3.33
2023-04-11T22:17:50.503Z,3.10
2023-04-11T22:20:20.996Z,3.20
2023-04-11T22:22:48.452Z,3.00
2023-04-11T22:25:18.306Z,3.20
2023-04-11T22:27:45.605Z,3.30
2023-04-11T22:30:14.433Z,3.40
2023-04-11T22:32:41.647Z,3.40
2023-04-11T22:35:09.402Z,3.13
2023-04-11T22:37:36.592Z,3.67
2023-04-11T22:40:05.415Z,3.43
2023-04-11T22:42:35.841Z,3.37
2023-04-11T22:45:03.258Z,3.07
2023-04-11T22:47:32.686Z,3.27
2023-04-11T22:50:01.600Z,3.30
2023-04-11T22:52:30.450Z,3.27
2023-04-11T22:54:57.796Z,3.27
2023-04-11T22:57:24.916Z,3.47
2023-04-11T22:59:52.602Z,3.03
2023-04-11T23:02:19.786Z,3.30
2023-04-11T23:04:46.981Z,4.10
2023-04-11T23:07:14.282Z,4.20
2023-04-11T23:09:41.435Z,3.80
2023-04-11T23:12:08.528Z,4.00
2023-04-11T23:14:35.651Z,3.60
2023-04-11T23:17:03.342Z,3.80
2023-04-11T23:19:30.549Z,3.87
2023-04-11T23:21:57.632Z,4.30
2023-04-11T23:24:24.959Z,4.10
2023-04-11T23:26:52.638Z,4.50
2023-04-11T23:29:19.800Z,5.27
2023-04-11T23:31:47.158Z,5.27
2023-04-11T23:34:14.308Z,5.10
2023-04-11T23:36:42.264Z,5.50
2023-04-11T23:39:09.981Z,7.00
2023-04-11T23:41:37.484Z,5.90
2023-04-11T23:44:04.656Z,5.47
2023-04-11T23:46:31.963Z,6.60
2023-04-11T23:48:59.099Z,5.47
2023-04-11T23:51:27.149Z,5.77
2023-04-11T23:53:54.398Z,6.43
2023-04-11T23:56:23.150Z,6.00
2023-04-11T23:58:50.316Z,6.00
